sensor_id;sensor_type;location;lat;lon;timestamp;P1;durP1;ratioP1;P2;durP2;ratioP2
71878;SDS011;59755;43.834;4.364;2022-12-18T00:01:15;16.70;;;8.65;;
71878;SDS011;59755;43.834;4.364;2022-12-18T00:03:43;15.37;;;9.10;;
71878;SDS011;59755;43.834;4.364;2022-12-18T00:06:09;15.60;;;8.25;;
71878;SDS011;59755;43.834;4.364;2022-12-18T00:08:35;14.65;;;8.48;;
71878;SDS011;59755;43.834;4.364;2022-12-18T00:11:04;15.30;;;8.73;;
71878;SDS011;59755;43.834;4.364;2022-12-18T00:13:30;13.80;;;8.20;;
71878;SDS011;59755;43.834;4.364;2022-12-18T00:16:00;13.93;;;8.45;;
71878;SDS011;59755;43.834;4.364;2022-12-18T00:18:31;13.90;;;7.57;;
71878;SDS011;59755;43.834;4.364;2022-12-18T00:20:58;13.15;;;8.25;;
71878;SDS011;59755;43.834;4.364;2022-12-18T00:23:25;11.52;;;7.20;;
71878;SDS011;59755;43.834;4.364;2022-12-18T00:25:51;12.80;;;7.57;;
71878;SDS011;59755;43.834;4.364;2022-12-18T00:28:17;14.70;;;8.35;;
71878;SDS011;59755;43.834;4.364;2022-12-18T00:30:43;13.23;;;7.57;;
71878;SDS011;59755;43.834;4.364;2022-12-18T00:33:09;13.93;;;7.78;;
71878;SDS011;59755;43.834;4.364;2022-12-18T00:35:34;13.13;;;7.72;;
71878;SDS011;59755;43.834;4.364;2022-12-18T00:38:00;13.00;;;7.50;;
71878;SDS011;59755;43.834;4.364;2022-12-18T00:40:26;13.23;;;7.38;;
71878;SDS011;59755;43.834;4.364;2022-12-18T00:42:52;14.95;;;7.60;;
71878;SDS011;59755;43.834;4.364;2022-12-18T00:45:20;11.82;;;6.78;;
71878;SDS011;59755;43.834;4.364;2022-12-18T00:47:48;12.48;;;7.78;;
71878;SDS011;59755;43.834;4.364;2022-12-18T00:50:13;13.20;;;7.63;;
71878;SDS011;59755;43.834;4.364;2022-12-18T00:52:39;13.10;;;7.85;;
71878;SDS011;59755;43.834;4.364;2022-12-18T00:55:05;11.63;;;7.00;;
71878;SDS011;59755;43.834;4.364;2022-12-18T00:57:31;13.98;;;7.63;;
71878;SDS011;59755;43.834;4.364;2022-12-18T00:59:56;12.27;;;7.53;;
71878;SDS011;59755;43.834;4.364;2022-12-18T01:02:22;13.57;;;7.95;;
71878;SDS011;59755;43.834;4.364;2022-12-18T01:04:48;13.65;;;7.72;;
71878;SDS011;59755;43.834;4.364;2022-12-18T01:07:14;13.82;;;7.40;;
71878;SDS011;59755;43.834;4.364;2022-12-18T01:09:39;13.07;;;7.50;;
71878;SDS011;59755;43.834;4.364;2022-12-18T01:12:05;13.00;;;8.48;;
71878;SDS011;59755;43.834;4.364;2022-12-18T01:14:31;12.98;;;8.25;;
71878;SDS011;59755;43.834;4.364;2022-12-18T01:16:57;16.23;;;8.70;;
71878;SDS011;59755;43.834;4.364;2022-12-18T01:19:23;13.30;;;7.97;;
71878;SDS011;59755;43.834;4.364;2022-12-18T01:21:49;15.85;;;8.30;;
71878;SDS011;59755;43.834;4.364;2022-12-18T01:24:15;14.13;;;8.30;;
71878;SDS011;59755;43.834;4.364;2022-12-18T01:26:40;15.73;;;9.20;;
71878;SDS011;59755;43.834;4.364;2022-12-18T01:29:06;15.98;;;9.23;;
71878;SDS011;59755;43.834;4.364;2022-12-18T01:31:32;15.27;;;8.30;;
71878;SDS011;59755;43.834;4.364;2022-12-18T01:34:02;15.32;;;8.18;;
71878;SDS011;59755;43.834;4.364;2022-12-18T01:36:30;14.85;;;7.78;;
71878;SDS011;59755;43.834;4.364;2022-12-18T01:39:05;12.68;;;7.38;;
71878;SDS011;59755;43.834;4.364;2022-12-18T01:41:32;16.63;;;8.30;;
71878;SDS011;59755;43.834;4.364;2022-12-18T01:47:24;13.75;;;7.88;;
71878;SDS011;59755;43.834;4.364;2022-12-18T01:49:54;14.35;;;8.55;;
71878;SDS011;59755;43.834;4.364;2022-12-18T01:52:22;12.55;;;7.32;;
71878;SDS011;59755;43.834;4.364;2022-12-18T01:54:51;14.48;;;8.10;;
71878;SDS011;59755;43.834;4.364;2022-12-18T01:57:18;13.18;;;7.18;;
71878;SDS011;59755;43.834;4.364;2022-12-18T01:59:45;14.23;;;7.75;;
71878;SDS011;59755;43.834;4.364;2022-12-18T02:02:16;13.65;;;7.90;;
71878;SDS011;59755;43.834;4.364;2022-12-18T02:04:42;14.20;;;7.90;;
71878;SDS011;59755;43.834;4.364;2022-12-18T02:09:59;12.88;;;7.07;;
71878;SDS011;59755;43.834;4.364;2022-12-18T02:12:35;13.57;;;8.38;;
71878;SDS011;59755;43.834;4.364;2022-12-18T02:18:08;14.35;;;7.82;;
71878;SDS011;59755;43.834;4.364;2022-12-18T02:20:42;13.33;;;7.63;;
71878;SDS011;59755;43.834;4.364;2022-12-18T02:28:54;13.40;;;7.57;;
71878;SDS011;59755;43.834;4.364;2022-12-18T02:31:28;12.90;;;7.40;;
71878;SDS011;59755;43.834;4.364;2022-12-18T02:34:00;14.95;;;7.93;;
71878;SDS011;59755;43.834;4.364;2022-12-18T02:36:29;12.95;;;7.22;;
71878;SDS011;59755;43.834;4.364;2022-12-18T02:38:57;13.15;;;8.18;;
71878;SDS011;59755;43.834;4.364;2022-12-18T02:41:24;12.85;;;7.20;;
71878;SDS011;59755;43.834;4.364;2022-12-18T02:43:58;13.85;;;7.43;;
71878;SDS011;59755;43.834;4.364;2022-12-18T02:46:28;13.85;;;7.72;;
71878;SDS011;59755;43.834;4.364;2022-12-18T02:49:00;12.77;;;7.15;;
71878;SDS011;59755;43.834;4.364;2022-12-18T02:54:45;12.52;;;6.95;;
71878;SDS011;59755;43.834;4.364;2022-12-18T02:57:22;13.05;;;8.02;;
71878;SDS011;59755;43.834;4.364;2022-12-18T03:00:00;13.63;;;7.07;;
71878;SDS011;59755;43.834;4.364;2022-12-18T03:13:16;14.48;;;7.40;;
71878;SDS011;59755;43.834;4.364;2022-12-18T03:15:53;12.77;;;7.28;;
71878;SDS011;59755;43.834;4.364;2022-12-18T03:18:23;14.65;;;7.63;;
71878;SDS011;59755;43.834;4.364;2022-12-18T03:20:57;14.77;;;8.68;;
71878;SDS011;59755;43.834;4.364;2022-12-18T03:23:29;11.93;;;6.73;;
71878;SDS011;59755;43.834;4.364;2022-12-18T03:26:02;14.95;;;7.97;;
71878;SDS011;59755;43.834;4.364;2022-12-18T03:28:32;14.70;;;7.53;;
71878;SDS011;59755;43.834;4.364;2022-12-18T03:31:05;15.05;;;7.72;;
71878;SDS011;59755;43.834;4.364;2022-12-18T03:33:38;13.55;;;7.47;;
71878;SDS011;59755;43.834;4.364;2022-12-18T03:36:11;14.90;;;7.97;;
71878;SDS011;59755;43.834;4.364;2022-12-18T03:38:37;14.85;;;8.10;;
71878;SDS011;59755;43.834;4.364;2022-12-18T03:46:41;13.73;;;7.85;;
71878;SDS011;59755;43.834;4.364;2022-12-18T03:49:21;12.85;;;7.63;;
71878;SDS011;59755;43.834;4.364;2022-12-18T03:54:29;13.65;;;7.10;;
71878;SDS011;59755;43.834;4.364;2022-12-18T03:56:58;12.55;;;6.63;;
71878;SDS011;59755;43.834;4.364;2022-12-18T03:59:29;14.05;;;7.47;;
71878;SDS011;59755;43.834;4.364;2022-12-18T04:01:57;14.27;;;7.63;;
71878;SDS011;59755;43.834;4.364;2022-12-18T04:04:26;12.73;;;6.80;;
71878;SDS011;59755;43.834;4.364;2022-12-18T04:06:53;11.88;;;7.05;;
71878;SDS011;59755;43.834;4.364;2022-12-18T04:09:20;13.07;;;7.10;;
71878;SDS011;59755;43.834;4.364;2022-12-18T04:11:47;12.60;;;7.30;;
71878;SDS011;59755;43.834;4.364;2022-12-18T04:14:13;15.00;;;7.38;;
71878;SDS011;59755;43.834;4.364;2022-12-18T04:16:38;12.57;;;7.35;;
71878;SDS011;59755;43.834;4.364;2022-12-18T04:19:04;11.88;;;7.35;;
71878;SDS011;59755;43.834;4.364;2022-12-18T04:21:30;12.68;;;7.45;;
71878;SDS011;59755;43.834;4.364;2022-12-18T04:23:56;13.57;;;7.97;;
71878;SDS011;59755;43.834;4.364;2022-12-18T04:26:21;13.80;;;7.93;;
71878;SDS011;59755;43.834;4.364;2022-12-18T04:28:47;14.32;;;7.75;;
71878;SDS011;59755;43.834;4.364;2022-12-18T04:31:13;13.15;;;6.93;;
71878;SDS011;59755;43.834;4.364;2022-12-18T04:33:39;15.77;;;7.72;;
71878;SDS011;59755;43.834;4.364;2022-12-18T04:36:04;13.85;;;6.82;;
71878;SDS011;59755;43.834;4.364;2022-12-18T04:38:30;13.93;;;7.20;;
71878;SDS011;59755;43.834;4.364;2022-12-18T04:40:56;13.63;;;7.35;;
71878;SDS011;59755;43.834;4.364;2022-12-18T04:43:22;12.70;;;7.90;;
71878;SDS011;59755;43.834;4.364;2022-12-18T04:45:47;13.32;;;7.18;;
71878;SDS011;59755;43.834;4.364;2022-12-18T04:48:13;13.70;;;7.65;;
71878;SDS011;59755;43.834;4.364;2022-12-18T04:50:39;12.80;;;6.95;;
71878;SDS011;59755;43.834;4.364;2022-12-18T04:53:05;13.18;;;7.47;;
71878;SDS011;59755;43.834;4.364;2022-12-18T04:55:31;12.55;;;7.07;;
71878;SDS011;59755;43.834;4.364;2022-12-18T04:57:56;12.07;;;6.75;;
71878;SDS011;59755;43.834;4.364;2022-12-18T05:00:22;12.63;;;6.65;;
71878;SDS011;59755;43.834;4.364;2022-12-18T05:02:48;13.90;;;7.90;;
71878;SDS011;59755;43.834;4.364;2022-12-18T05:05:14;12.13;;;6.88;;
71878;SDS011;59755;43.834;4.364;2022-12-18T05:07:39;12.55;;;7.53;;
71878;SDS011;59755;43.834;4.364;2022-12-18T05:10:05;14.38;;;6.97;;
71878;SDS011;59755;43.834;4.364;2022-12-18T05:12:32;13.45;;;6.80;;
71878;SDS011;59755;43.834;4.364;2022-12-18T05:14:58;15.70;;;7.20;;
71878;SDS011;59755;43.834;4.364;2022-12-18T05:17:23;14.38;;;6.65;;
71878;SDS011;59755;43.834;4.364;2022-12-18T05:19:49;12.35;;;6.50;;
71878;SDS011;59755;43.834;4.364;2022-12-18T05:22:15;11.93;;;7.32;;
71878;SDS011;59755;43.834;4.364;2022-12-18T05:24:41;13.13;;;7.20;;
71878;SDS011;59755;43.834;4.364;2022-12-18T05:27:07;11.30;;;6.13;;
71878;SDS011;59755;43.834;4.364;2022-12-18T05:29:32;12.13;;;6.90;;
71878;SDS011;59755;43.834;4.364;2022-12-18T05:31:58;12.60;;;6.97;;
71878;SDS011;59755;43.834;4.364;2022-12-18T05:34:24;12.82;;;7.07;;
71878;SDS011;59755;43.834;4.364;2022-12-18T05:36:49;10.18;;;6.25;;
71878;SDS011;59755;43.834;4.364;2022-12-18T05:39:15;13.20;;;7.13;;
71878;SDS011;59755;43.834;4.364;2022-12-18T05:41:41;11.73;;;6.93;;
71878;SDS011;59755;43.834;4.364;2022-12-18T05:44:06;11.48;;;6.68;;
71878;SDS011;59755;43.834;4.364;2022-12-18T05:46:32;12.05;;;6.70;;
71878;SDS011;59755;43.834;4.364;2022-12-18T05:49:01;11.45;;;6.22;;
71878;SDS011;59755;43.834;4.364;2022-12-18T05:51:27;13.35;;;7.50;;
71878;SDS011;59755;43.834;4.364;2022-12-18T05:53:53;16.33;;;8.07;;
71878;SDS011;59755;43.834;4.364;2022-12-18T05:56:20;12.98;;;7.00;;
71878;SDS011;59755;43.834;4.364;2022-12-18T05:58:47;13.73;;;6.93;;
71878;SDS011;59755;43.834;4.364;2022-12-18T06:01:17;12.98;;;7.40;;
71878;SDS011;59755;43.834;4.364;2022-12-18T06:03:45;12.75;;;6.75;;
71878;SDS011;59755;43.834;4.364;2022-12-18T06:06:19;12.75;;;7.63;;
71878;SDS011;59755;43.834;4.364;2022-12-18T06:08:49;13.73;;;7.35;;
71878;SDS011;59755;43.834;4.364;2022-12-18T06:11:16;12.23;;;7.07;;
71878;SDS011;59755;43.834;4.364;2022-12-18T06:13:43;12.52;;;6.75;;
71878;SDS011;59755;43.834;4.364;2022-12-18T06:16:10;12.45;;;6.90;;
71878;SDS011;59755;43.834;4.364;2022-12-18T06:18:35;12.73;;;7.10;;
71878;SDS011;59755;43.834;4.364;2022-12-18T06:21:01;12.38;;;7.40;;
71878;SDS011;59755;43.834;4.364;2022-12-18T06:23:27;11.23;;;6.47;;
71878;SDS011;59755;43.834;4.364;2022-12-18T06:25:53;13.02;;;7.03;;
71878;SDS011;59755;43.834;4.364;2022-12-18T06:28:19;12.25;;;6.57;;
71878;SDS011;59755;43.834;4.364;2022-12-18T06:30:45;13.18;;;7.65;;
71878;SDS011;59755;43.834;4.364;2022-12-18T06:33:13;11.30;;;6.57;;
71878;SDS011;59755;43.834;4.364;2022-12-18T06:35:39;13.18;;;7.00;;
71878;SDS011;59755;43.834;4.364;2022-12-18T06:38:06;13.55;;;6.95;;
71878;SDS011;59755;43.834;4.364;2022-12-18T06:40:32;13.20;;;6.15;;
71878;SDS011;59755;43.834;4.364;2022-12-18T06:42:58;13.55;;;7.55;;
71878;SDS011;59755;43.834;4.364;2022-12-18T06:45:24;13.48;;;6.93;;
71878;SDS011;59755;43.834;4.364;2022-12-18T06:47:50;11.02;;;6.72;;
71878;SDS011;59755;43.834;4.364;2022-12-18T06:50:16;12.40;;;7.28;;
71878;SDS011;59755;43.834;4.364;2022-12-18T06:52:42;12.38;;;6.88;;
71878;SDS011;59755;43.834;4.364;2022-12-18T06:55:09;14.60;;;6.85;;
71878;SDS011;59755;43.834;4.364;2022-12-18T06:57:35;13.00;;;6.80;;
71878;SDS011;59755;43.834;4.364;2022-12-18T07:00:01;11.02;;;6.10;;
71878;SDS011;59755;43.834;4.364;2022-12-18T07:02:28;12.23;;;7.03;;
71878;SDS011;59755;43.834;4.364;2022-12-18T07:04:53;12.35;;;6.90;;
71878;SDS011;59755;43.834;4.364;2022-12-18T07:07:19;10.45;;;6.50;;
71878;SDS011;59755;43.834;4.364;2022-12-18T07:09:45;12.50;;;6.78;;
71878;SDS011;59755;43.834;4.364;2022-12-18T07:12:10;12.50;;;6.88;;
71878;SDS011;59755;43.834;4.364;2022-12-18T07:14:36;11.30;;;6.45;;
71878;SDS011;59755;43.834;4.364;2022-12-18T07:17:02;12.23;;;7.38;;
71878;SDS011;59755;43.834;4.364;2022-12-18T07:19:28;12.45;;;6.72;;
71878;SDS011;59755;43.834;4.364;2022-12-18T07:21:54;12.40;;;7.55;;
71878;SDS011;59755;43.834;4.364;2022-12-18T07:24:20;11.30;;;6.85;;
71878;SDS011;59755;43.834;4.364;2022-12-18T07:26:46;11.68;;;6.68;;
71878;SDS011;59755;43.834;4.364;2022-12-18T07:29:12;11.20;;;6.13;;
71878;SDS011;59755;43.834;4.364;2022-12-18T07:31:38;10.98;;;6.15;;
71878;SDS011;59755;43.834;4.364;2022-12-18T07:34:04;11.43;;;7.30;;
71878;SDS011;59755;43.834;4.364;2022-12-18T07:36:29;10.32;;;6.57;;
71878;SDS011;59755;43.834;4.364;2022-12-18T07:38:55;11.48;;;6.82;;
71878;SDS011;59755;43.834;4.364;2022-12-18T07:41:21;11.43;;;6.18;;
71878;SDS011;59755;43.834;4.364;2022-12-18T07:43:47;12.05;;;6.20;;
71878;SDS011;59755;43.834;4.364;2022-12-18T07:46:13;14.23;;;7.13;;
71878;SDS011;59755;43.834;4.364;2022-12-18T07:48:41;12.88;;;7.10;;
71878;SDS011;59755;43.834;4.364;2022-12-18T07:51:07;14.90;;;7.93;;
71878;SDS011;59755;43.834;4.364;2022-12-18T07:53:33;14.68;;;7.30;;
71878;SDS011;59755;43.834;4.364;2022-12-18T07:56:01;14.50;;;7.80;;
71878;SDS011;59755;43.834;4.364;2022-12-18T07:58:30;14.48;;;7.53;;
71878;SDS011;59755;43.834;4.364;2022-12-18T08:01:02;12.40;;;7.18;;
71878;SDS011;59755;43.834;4.364;2022-12-18T08:03:29;14.32;;;7.75;;
71878;SDS011;59755;43.834;4.364;2022-12-18T08:05:58;16.30;;;8.70;;
71878;SDS011;59755;43.834;4.364;2022-12-18T08:08:25;16.27;;;8.32;;
71878;SDS011;59755;43.834;4.364;2022-12-18T08:10:50;15.60;;;8.68;;
71878;SDS011;59755;43.834;4.364;2022-12-18T08:13:16;14.18;;;8.13;;
71878;SDS011;59755;43.834;4.364;2022-12-18T08:15:42;15.50;;;9.25;;
71878;SDS011;59755;43.834;4.364;2022-12-18T08:18:07;14.82;;;7.88;;
71878;SDS011;59755;43.834;4.364;2022-12-18T08:20:33;14.50;;;8.23;;
71878;SDS011;59755;43.834;4.364;2022-12-18T08:22:59;14.07;;;7.88;;
71878;SDS011;59755;43.834;4.364;2022-12-18T08:25:24;17.70;;;9.82;;
71878;SDS011;59755;43.834;4.364;2022-12-18T08:27:50;17.27;;;8.98;;
71878;SDS011;59755;43.834;4.364;2022-12-18T08:30:16;18.23;;;9.98;;
71878;SDS011;59755;43.834;4.364;2022-12-18T08:32:42;15.10;;;8.98;;
71878;SDS011;59755;43.834;4.364;2022-12-18T08:35:07;15.55;;;10.82;;
71878;SDS011;59755;43.834;4.364;2022-12-18T08:37:33;17.48;;;10.52;;
71878;SDS011;59755;43.834;4.364;2022-12-18T08:39:59;16.02;;;10.23;;
71878;SDS011;59755;43.834;4.364;2022-12-18T08:42:25;18.23;;;10.52;;
71878;SDS011;59755;43.834;4.364;2022-12-18T08:45:10;22.98;;;11.82;;
71878;SDS011;59755;43.834;4.364;2022-12-18T08:47:35;20.98;;;11.50;;
71878;SDS011;59755;43.834;4.364;2022-12-18T08:50:01;19.08;;;10.95;;
71878;SDS011;59755;43.834;4.364;2022-12-18T08:52:27;20.90;;;11.73;;
71878;SDS011;59755;43.834;4.364;2022-12-18T08:54:53;18.23;;;11.93;;
71878;SDS011;59755;43.834;4.364;2022-12-18T08:57:19;19.33;;;11.32;;
71878;SDS011;59755;43.834;4.364;2022-12-18T08:59:44;17.67;;;11.10;;
71878;SDS011;59755;43.834;4.364;2022-12-18T09:02:10;17.50;;;10.80;;
71878;SDS011;59755;43.834;4.364;2022-12-18T09:04:36;18.45;;;11.70;;
71878;SDS011;59755;43.834;4.364;2022-12-18T09:07:02;16.45;;;10.38;;
71878;SDS011;59755;43.834;4.364;2022-12-18T09:09:28;17.70;;;11.93;;
71878;SDS011;59755;43.834;4.364;2022-12-18T09:11:53;17.13;;;10.23;;
71878;SDS011;59755;43.834;4.364;2022-12-18T09:14:19;15.07;;;9.45;;
71878;SDS011;59755;43.834;4.364;2022-12-18T09:16:45;14.73;;;8.98;;
71878;SDS011;59755;43.834;4.364;2022-12-18T09:19:11;15.02;;;7.93;;
71878;SDS011;59755;43.834;4.364;2022-12-18T09:21:36;13.50;;;8.00;;
71878;SDS011;59755;43.834;4.364;2022-12-18T09:24:04;12.75;;;7.53;;
71878;SDS011;59755;43.834;4.364;2022-12-18T09:26:30;13.20;;;7.75;;
71878;SDS011;59755;43.834;4.364;2022-12-18T09:28:56;13.82;;;8.10;;
71878;SDS011;59755;43.834;4.364;2022-12-18T09:31:22;14.63;;;8.27;;
71878;SDS011;59755;43.834;4.364;2022-12-18T09:33:49;13.45;;;8.13;;
71878;SDS011;59755;43.834;4.364;2022-12-18T09:36:16;12.77;;;7.75;;
71878;SDS011;59755;43.834;4.364;2022-12-18T09:38:42;11.25;;;6.93;;
71878;SDS011;59755;43.834;4.364;2022-12-18T09:43:56;13.13;;;7.93;;
71878;SDS011;59755;43.834;4.364;2022-12-18T09:46:30;12.68;;;7.00;;
71878;SDS011;59755;43.834;4.364;2022-12-18T09:49:02;12.35;;;7.53;;
71878;SDS011;59755;43.834;4.364;2022-12-18T09:54:11;10.43;;;6.30;;
71878;SDS011;59755;43.834;4.364;2022-12-18T09:56:50;11.00;;;6.43;;
71878;SDS011;59755;43.834;4.364;2022-12-18T09:59:34;11.70;;;7.07;;
71878;SDS011;59755;43.834;4.364;2022-12-18T10:02:13;11.73;;;6.40;;
71878;SDS011;59755;43.834;4.364;2022-12-18T10:04:39;10.90;;;6.82;;
71878;SDS011;59755;43.834;4.364;2022-12-18T10:07:12;10.55;;;6.60;;
71878;SDS011;59755;43.834;4.364;2022-12-18T10:09:50;12.70;;;6.75;;
71878;SDS011;59755;43.834;4.364;2022-12-18T10:15:19;11.80;;;7.15;;
71878;SDS011;59755;43.834;4.364;2022-12-18T10:18:15;12.30;;;7.25;;
71878;SDS011;59755;43.834;4.364;2022-12-18T10:20:49;10.02;;;7.07;;
71878;SDS011;59755;43.834;4.364;2022-12-18T10:26:15;12.23;;;7.15;;
71878;SDS011;59755;43.834;4.364;2022-12-18T10:28:41;12.90;;;7.35;;
71878;SDS011;59755;43.834;4.364;2022-12-18T10:31:15;13.00;;;7.82;;
71878;SDS011;59755;43.834;4.364;2022-12-18T10:33:46;11.50;;;6.60;;
71878;SDS011;59755;43.834;4.364;2022-12-18T10:36:12;12.25;;;6.93;;
71878;SDS011;59755;43.834;4.364;2022-12-18T10:38:37;11.27;;;7.43;;
71878;SDS011;59755;43.834;4.364;2022-12-18T10:43:47;12.20;;;7.30;;
71878;SDS011;59755;43.834;4.364;2022-12-18T10:46:17;12.52;;;7.55;;
71878;SDS011;59755;43.834;4.364;2022-12-18T10:48:50;16.25;;;7.55;;
71878;SDS011;59755;43.834;4.364;2022-12-18T10:53:54;12.50;;;7.97;;
71878;SDS011;59755;43.834;4.364;2022-12-18T10:56:23;11.55;;;6.93;;
71878;SDS011;59755;43.834;4.364;2022-12-18T10:58:59;12.32;;;7.78;;
71878;SDS011;59755;43.834;4.364;2022-12-18T11:04:22;13.35;;;7.25;;
71878;SDS011;59755;43.834;4.364;2022-12-18T11:06:55;11.63;;;7.43;;
71878;SDS011;59755;43.834;4.364;2022-12-18T11:09:22;10.73;;;6.53;;
71878;SDS011;59755;43.834;4.364;2022-12-18T11:11:57;12.00;;;7.43;;
71878;SDS011;59755;43.834;4.364;2022-12-18T11:14:26;10.93;;;7.30;;
71878;SDS011;59755;43.834;4.364;2022-12-18T11:17:16;12.75;;;8.07;;
71878;SDS011;59755;43.834;4.364;2022-12-18T11:20:07;10.95;;;6.93;;
71878;SDS011;59755;43.834;4.364;2022-12-18T11:22:59;11.68;;;7.10;;
71878;SDS011;59755;43.834;4.364;2022-12-18T11:25:30;12.02;;;7.95;;
71878;SDS011;59755;43.834;4.364;2022-12-18T11:27:58;12.20;;;7.78;;
71878;SDS011;59755;43.834;4.364;2022-12-18T11:30:34;12.70;;;7.80;;
71878;SDS011;59755;43.834;4.364;2022-12-18T11:33:11;15.07;;;7.78;;
71878;SDS011;59755;43.834;4.364;2022-12-18T11:35:45;10.90;;;7.47;;
71878;SDS011;59755;43.834;4.364;2022-12-18T11:40:52;11.35;;;7.60;;
71878;SDS011;59755;43.834;4.364;2022-12-18T11:43:21;12.48;;;7.57;;
71878;SDS011;59755;43.834;4.364;2022-12-18T11:46:13;12.23;;;7.53;;
71878;SDS011;59755;43.834;4.364;2022-12-18T11:48:59;13.65;;;8.15;;
71878;SDS011;59755;43.834;4.364;2022-12-18T11:51:49;13.20;;;8.07;;
71878;SDS011;59755;43.834;4.364;2022-12-18T11:54:22;12.88;;;8.13;;
71878;SDS011;59755;43.834;4.364;2022-12-18T12:10:25;15.55;;;9.48;;
71878;SDS011;59755;43.834;4.364;2022-12-18T12:13:06;16.73;;;10.35;;
71878;SDS011;59755;43.834;4.364;2022-12-18T12:21:20;17.17;;;11.85;;
71878;SDS011;59755;43.834;4.364;2022-12-18T12:29:36;16.00;;;11.27;;
71878;SDS011;59755;43.834;4.364;2022-12-18T12:34:45;18.97;;;12.10;;
71878;SDS011;59755;43.834;4.364;2022-12-18T12:37:46;20.05;;;13.45;;
71878;SDS011;59755;43.834;4.364;2022-12-18T12:40:18;18.35;;;12.27;;
71878;SDS011;59755;43.834;4.364;2022-12-18T12:43:01;18.58;;;11.63;;
71878;SDS011;59755;43.834;4.364;2022-12-18T12:48:07;16.35;;;11.52;;
71878;SDS011;59755;43.834;4.364;2022-12-18T12:50:42;17.55;;;10.68;;
71878;SDS011;59755;43.834;4.364;2022-12-18T12:53:11;15.68;;;9.25;;
71878;SDS011;59755;43.834;4.364;2022-12-18T12:55:46;14.80;;;8.55;;
71878;SDS011;59755;43.834;4.364;2022-12-18T12:58:17;15.52;;;9.15;;
71878;SDS011;59755;43.834;4.364;2022-12-18T13:01:01;13.98;;;7.95;;
71878;SDS011;59755;43.834;4.364;2022-12-18T13:03:36;14.95;;;8.75;;
71878;SDS011;59755;43.834;4.364;2022-12-18T13:08:56;15.05;;;8.55;;
71878;SDS011;59755;43.834;4.364;2022-12-18T13:11:43;13.68;;;8.25;;
71878;SDS011;59755;43.834;4.364;2022-12-18T13:14:33;15.93;;;9.00;;
71878;SDS011;59755;43.834;4.364;2022-12-18T13:17:16;12.57;;;7.10;;
71878;SDS011;59755;43.834;4.364;2022-12-18T13:19:42;12.68;;;7.95;;
71878;SDS011;59755;43.834;4.364;2022-12-18T13:22:22;13.38;;;7.97;;
71878;SDS011;59755;43.834;4.364;2022-12-18T13:24:49;12.00;;;7.93;;
71878;SDS011;59755;43.834;4.364;2022-12-18T13:38:20;14.40;;;8.88;;
71878;SDS011;59755;43.834;4.364;2022-12-18T13:46:03;14.20;;;9.60;;
71878;SDS011;59755;43.834;4.364;2022-12-18T13:48:48;17.25;;;10.50;;
71878;SDS011;59755;43.834;4.364;2022-12-18T13:51:24;14.85;;;10.20;;
71878;SDS011;59755;43.834;4.364;2022-12-18T13:56:20;16.67;;;10.20;;
71878;SDS011;59755;43.834;4.364;2022-12-18T14:01:56;16.83;;;10.32;;
71878;SDS011;59755;43.834;4.364;2022-12-18T14:07:12;13.85;;;8.63;;
71878;SDS011;59755;43.834;4.364;2022-12-18T14:09:41;12.73;;;8.55;;
71878;SDS011;59755;43.834;4.364;2022-12-18T14:12:18;12.48;;;8.23;;
71878;SDS011;59755;43.834;4.364;2022-12-18T14:17:52;15.60;;;9.32;;
71878;SDS011;59755;43.834;4.364;2022-12-18T14:20:19;16.00;;;10.10;;
71878;SDS011;59755;43.834;4.364;2022-12-18T14:22:45;15.68;;;9.25;;
71878;SDS011;59755;43.834;4.364;2022-12-18T14:27:44;16.92;;;10.43;;
71878;SDS011;59755;43.834;4.364;2022-12-18T14:33:03;15.80;;;9.88;;
71878;SDS011;59755;43.834;4.364;2022-12-18T14:35:31;16.40;;;9.40;;
71878;SDS011;59755;43.834;4.364;2022-12-18T14:38:19;14.50;;;10.05;;
71878;SDS011;59755;43.834;4.364;2022-12-18T14:40:52;14.20;;;8.95;;
71878;SDS011;59755;43.834;4.364;2022-12-18T14:43:24;14.90;;;9.57;;
71878;SDS011;59755;43.834;4.364;2022-12-18T14:45:52;13.90;;;9.10;;
71878;SDS011;59755;43.834;4.364;2022-12-18T14:48:35;17.15;;;10.10;;
71878;SDS011;59755;43.834;4.364;2022-12-18T14:51:02;16.73;;;9.82;;
71878;SDS011;59755;43.834;4.364;2022-12-18T14:53:44;15.30;;;9.73;;
71878;SDS011;59755;43.834;4.364;2022-12-18T14:56:13;15.05;;;10.70;;
71878;SDS011;59755;43.834;4.364;2022-12-18T14:58:54;13.65;;;9.63;;
71878;SDS011;59755;43.834;4.364;2022-12-18T15:01:29;14.18;;;9.35;;
71878;SDS011;59755;43.834;4.364;2022-12-18T15:03:58;15.52;;;10.48;;
71878;SDS011;59755;43.834;4.364;2022-12-18T15:08:59;17.08;;;11.48;;
71878;SDS011;59755;43.834;4.364;2022-12-18T15:11:33;15.88;;;10.35;;
71878;SDS011;59755;43.834;4.364;2022-12-18T15:14:21;18.80;;;12.02;;
71878;SDS011;59755;43.834;4.364;2022-12-18T15:16:51;21.92;;;13.18;;
71878;SDS011;59755;43.834;4.364;2022-12-18T15:19:18;19.03;;;12.87;;
71878;SDS011;59755;43.834;4.364;2022-12-18T15:21:47;17.88;;;12.50;;
71878;SDS011;59755;43.834;4.364;2022-12-18T15:24:16;23.10;;;15.27;;
71878;SDS011;59755;43.834;4.364;2022-12-18T15:26:52;23.63;;;16.88;;
71878;SDS011;59755;43.834;4.364;2022-12-18T15:29:21;23.42;;;15.85;;
71878;SDS011;59755;43.834;4.364;2022-12-18T15:32:03;21.25;;;15.38;;
71878;SDS011;59755;43.834;4.364;2022-12-18T15:34:31;24.80;;;15.75;;
71878;SDS011;59755;43.834;4.364;2022-12-18T15:36:59;22.98;;;15.35;;
71878;SDS011;59755;43.834;4.364;2022-12-18T15:39:25;21.63;;;15.50;;
71878;SDS011;59755;43.834;4.364;2022-12-18T15:41:51;23.27;;;16.67;;
71878;SDS011;59755;43.834;4.364;2022-12-18T15:44:35;23.65;;;16.35;;
71878;SDS011;59755;43.834;4.364;2022-12-18T15:47:01;22.50;;;16.63;;
71878;SDS011;59755;43.834;4.364;2022-12-18T15:49:27;24.58;;;16.52;;
71878;SDS011;59755;43.834;4.364;2022-12-18T15:51:56;22.00;;;15.25;;
71878;SDS011;59755;43.834;4.364;2022-12-18T15:54:24;17.67;;;12.43;;
71878;SDS011;59755;43.834;4.364;2022-12-18T15:57:09;16.60;;;10.38;;
71878;SDS011;59755;43.834;4.364;2022-12-18T15:59:48;16.45;;;10.10;;
71878;SDS011;59755;43.834;4.364;2022-12-18T16:02:18;15.60;;;9.77;;
71878;SDS011;59755;43.834;4.364;2022-12-18T16:04:45;15.52;;;9.80;;
71878;SDS011;59755;43.834;4.364;2022-12-18T16:07:11;15.52;;;10.40;;
71878;SDS011;59755;43.834;4.364;2022-12-18T16:09:37;16.65;;;9.07;;
71878;SDS011;59755;43.834;4.364;2022-12-18T16:12:04;16.73;;;9.60;;
71878;SDS011;59755;43.834;4.364;2022-12-18T16:14:31;12.68;;;8.43;;
71878;SDS011;59755;43.834;4.364;2022-12-18T16:16:58;12.05;;;7.80;;
71878;SDS011;59755;43.834;4.364;2022-12-18T16:19:27;14.88;;;8.52;;
71878;SDS011;59755;43.834;4.364;2022-12-18T16:21:55;15.02;;;7.82;;
71878;SDS011;59755;43.834;4.364;2022-12-18T16:24:26;13.80;;;8.35;;
71878;SDS011;59755;43.834;4.364;2022-12-18T16:26:53;13.50;;;8.23;;
71878;SDS011;59755;43.834;4.364;2022-12-18T16:29:20;14.70;;;8.27;;
71878;SDS011;59755;43.834;4.364;2022-12-18T16:31:49;13.65;;;8.82;;
71878;SDS011;59755;43.834;4.364;2022-12-18T16:34:23;14.05;;;9.32;;
71878;SDS011;59755;43.834;4.364;2022-12-18T16:36:51;16.60;;;10.02;;
71878;SDS011;59755;43.834;4.364;2022-12-18T16:39:21;13.73;;;9.40;;
71878;SDS011;59755;43.834;4.364;2022-12-18T16:41:47;14.88;;;10.20;;
71878;SDS011;59755;43.834;4.364;2022-12-18T16:44:13;15.50;;;10.57;;
71878;SDS011;59755;43.834;4.364;2022-12-18T16:46:39;15.43;;;11.00;;
71878;SDS011;59755;43.834;4.364;2022-12-18T16:49:08;15.65;;;10.20;;
71878;SDS011;59755;43.834;4.364;2022-12-18T16:51:35;15.52;;;10.43;;
71878;SDS011;59755;43.834;4.364;2022-12-18T16:54:00;16.98;;;10.65;;